createdAt,value
2022-10-12T00:02:14.242Z,13.27
2022-10-12T00:04:41.613Z,12.70
2022-10-12T00:07:08.915Z,11.50
2022-10-12T00:09:36.159Z,12.27
2022-10-12T00:12:03.575Z,11.93
2022-10-12T00:14:30.844Z,11.87
2022-10-12T00:16:58.189Z,11.30
2022-10-12T00:19:25.815Z,11.73
2022-10-12T00:21:53.052Z,11.13
2022-10-12T00:24:20.394Z,10.80
2022-10-12T00:26:50.394Z,10.63
2022-10-12T00:29:17.724Z,10.73
2022-10-12T00:31:45.052Z,10.17
2022-10-12T00:34:12.585Z,10.30
2022-10-12T00:36:39.851Z,10.17
2022-10-12T00:39:08.882Z,10.77
2022-10-12T00:41:42.304Z,9.97
2022-10-12T00:44:47.837Z,10.43
2022-10-12T00:47:29.450Z,9.77
2022-10-12T00:50:02.976Z,10.10
2022-10-12T00:52:42.404Z,9.97
2022-10-12T00:55:12.630Z,10.50
2022-10-12T00:57:44.500Z,9.87
2022-10-12T01:00:14.700Z,10.50
2022-10-12T01:02:43.564Z,10.17
2022-10-12T01:05:11.832Z,10.87
2022-10-12T01:07:39.630Z,9.93
2022-10-12T01:10:07.803Z,9.77
2022-10-12T01:12:35.845Z,10.23
2022-10-12T01:15:04.375Z,10.03
2022-10-12T01:17:40.017Z,9.50
2022-10-12T01:20:32.205Z,10.60
2022-10-12T01:23:18.239Z,9.77
2022-10-12T01:26:06.979Z,9.90
2022-10-12T01:28:55.782Z,9.20
2022-10-12T01:31:49.362Z,10.47
2022-10-12T01:34:34.691Z,10.30
2022-10-12T01:37:11.461Z,9.77
2022-10-12T01:39:46.680Z,10.13
2022-10-12T01:42:20.084Z,10.30
2022-10-12T01:44:47.439Z,10.97
2022-10-12T01:47:14.719Z,10.53
2022-10-12T01:49:42.085Z,10.90
2022-10-12T01:52:28.265Z,10.40
2022-10-12T01:55:26.846Z,10.07
2022-10-12T01:58:31.207Z,9.83
2022-10-12T02:01:29.749Z,11.20
2022-10-12T02:04:18.540Z,10.43
2022-10-12T02:06:53.480Z,10.13
2022-10-12T02:09:29.620Z,9.43
2022-10-12T02:12:01.893Z,9.87
2022-10-12T02:14:40.620Z,9.43
2022-10-12T02:17:13.049Z,9.60
2022-10-12T02:19:58.046Z,9.60
2022-10-12T02:22:34.179Z,10.17
2022-10-12T02:25:05.304Z,10.47
2022-10-12T02:27:36.122Z,9.73
2022-10-12T02:30:04.291Z,10.20
2022-10-12T02:32:43.572Z,10.03
2022-10-12T02:35:37.391Z,9.70
2022-10-12T02:38:26.586Z,9.23
2022-10-12T02:40:58.772Z,9.37
2022-10-12T02:43:52.147Z,10.50
2022-10-12T02:46:22.691Z,9.80
2022-10-12T02:48:51.499Z,9.43
2022-10-12T02:51:21.610Z,9.97
2022-10-12T02:53:49.371Z,10.17
2022-10-12T02:56:16.724Z,10.03
2022-10-12T02:58:45.758Z,9.80
2022-10-12T03:01:14.009Z,9.23
2022-10-12T03:03:41.271Z,9.07
2022-10-12T03:06:08.960Z,9.30
2022-10-12T03:08:36.280Z,9.73
2022-10-12T03:11:05.408Z,9.43
2022-10-12T03:13:32.936Z,9.40
2022-10-12T03:16:05.269Z,8.50
2022-10-12T03:18:32.813Z,9.37
2022-10-12T03:21:00.504Z,9.17
2022-10-12T03:23:28.622Z,8.57
2022-10-12T03:25:55.853Z,8.73
2022-10-12T03:28:23.113Z,9.93
2022-10-12T03:30:50.501Z,8.53
2022-10-12T03:33:17.808Z,8.83
2022-10-12T03:35:46.130Z,9.30
2022-10-12T03:38:14.926Z,7.93
2022-10-12T03:40:42.245Z,8.47
2022-10-12T03:43:09.748Z,8.90
2022-10-12T03:45:37.609Z,9.60
2022-10-12T03:48:06.820Z,9.43
2022-10-12T03:50:35.319Z,8.47
2022-10-12T03:53:04.878Z,8.43
2022-10-12T03:55:32.872Z,8.53
2022-10-12T03:58:00.108Z,8.73
2022-10-12T04:00:28.178Z,9.07
2022-10-12T04:02:55.662Z,8.80
2022-10-12T04:05:23.370Z,8.63
2022-10-12T04:07:51.372Z,9.07
2022-10-12T04:10:18.600Z,8.73
2022-10-12T04:12:46.567Z,8.57
2022-10-12T04:15:14.493Z,9.27
2022-10-12T04:17:42.081Z,10.83
2022-10-12T04:20:11.208Z,8.10
2022-10-12T04:22:39.201Z,8.50
2022-10-12T04:25:06.929Z,8.20
2022-10-12T04:27:34.298Z,8.03
2022-10-12T04:30:01.498Z,8.23
2022-10-12T04:32:28.729Z,8.00
2022-10-12T04:34:55.940Z,8.27
2022-10-12T04:37:23.213Z,8.53
2022-10-12T04:39:50.424Z,8.47
2022-10-12T04:42:17.689Z,8.13
2022-10-12T04:44:44.924Z,7.50
2022-10-12T04:47:12.294Z,7.33
2022-10-12T04:49:39.525Z,7.70
2022-10-12T04:52:06.799Z,7.67
2022-10-12T04:54:34.070Z,8.17
2022-10-12T04:57:01.596Z,7.67
2022-10-12T04:59:28.973Z,8.40
2022-10-12T05:01:56.265Z,7.00
2022-10-12T05:04:23.671Z,7.43
2022-10-12T05:06:50.972Z,7.13
2022-10-12T05:09:18.316Z,7.27
2022-10-12T05:11:45.659Z,7.27
2022-10-12T05:14:12.991Z,7.57
2022-10-12T05:16:40.220Z,6.43
2022-10-12T05:19:07.522Z,6.90
2022-10-12T05:21:34.890Z,5.90
2022-10-12T05:24:02.106Z,6.20
2022-10-12T05:26:29.331Z,6.67
2022-10-12T05:28:56.606Z,6.80
2022-10-12T05:31:23.968Z,6.57
2022-10-12T05:33:51.184Z,6.47
2022-10-12T05:36:18.565Z,6.20
2022-10-12T05:38:45.906Z,6.43
2022-10-12T05:41:13.584Z,5.83
2022-10-12T05:43:41.150Z,6.00
2022-10-12T05:46:12.249Z,6.40
2022-10-12T05:48:41.664Z,6.00
2022-10-12T05:51:08.871Z,5.53
2022-10-12T05:53:36.288Z,5.73
2022-10-12T05:56:04.076Z,5.87
2022-10-12T05:58:31.316Z,6.40
2022-10-12T06:01:12.967Z,5.83
2022-10-12T06:03:40.819Z,6.23
2022-10-12T06:06:08.505Z,5.93
2022-10-12T06:08:35.858Z,5.27
2022-10-12T06:11:03.628Z,5.43
2022-10-12T06:13:30.899Z,5.50
2022-10-12T06:15:58.212Z,5.40
2022-10-12T06:18:25.704Z,6.10
2022-10-12T06:21:21.065Z,5.67
2022-10-12T06:23:41.573Z,5.70
2022-10-12T06:26:08.857Z,6.00
2022-10-12T06:28:36.122Z,5.53
2022-10-12T06:31:03.430Z,5.37
2022-10-12T06:33:30.895Z,6.30
2022-10-12T06:35:58.105Z,5.67
2022-10-12T06:38:25.378Z,5.33
2022-10-12T06:40:53.580Z,5.03
2022-10-12T06:43:22.817Z,4.87
2022-10-12T06:45:50.328Z,5.37
2022-10-12T06:48:18.713Z,5.37
2022-10-12T06:50:47.778Z,5.17
2022-10-12T06:53:14.994Z,5.43
2022-10-12T06:55:42.336Z,5.20
2022-10-12T06:58:09.561Z,5.00
2022-10-12T07:00:37.180Z,5.70
2022-10-12T07:03:04.543Z,5.50
2022-10-12T07:05:31.956Z,4.90
2022-10-12T07:07:59.239Z,5.40
2022-10-12T07:10:26.708Z,4.93
2022-10-12T07:12:54.293Z,4.67
2022-10-12T07:15:21.950Z,5.40
2022-10-12T07:17:49.376Z,5.43
2022-10-12T07:20:16.717Z,5.17
2022-10-12T07:22:44.725Z,5.07
2022-10-12T07:25:11.969Z,5.00
2022-10-12T07:27:39.591Z,5.23
2022-10-12T07:30:07.796Z,4.77
2022-10-12T07:32:35.016Z,5.50
2022-10-12T07:35:02.414Z,4.93
2022-10-12T07:37:29.628Z,5.43
2022-10-12T07:39:57.766Z,4.83
2022-10-12T07:42:25.516Z,5.13
2022-10-12T07:44:52.862Z,5.37
2022-10-12T07:47:20.308Z,4.73
2022-10-12T07:49:47.644Z,6.13
2022-10-12T07:52:14.924Z,5.50
2022-10-12T07:54:42.314Z,5.57
2022-10-12T07:57:09.680Z,5.07
2022-10-12T07:59:36.902Z,5.23
2022-10-12T08:02:04.249Z,5.73
2022-10-12T08:04:31.590Z,5.30
2022-10-12T08:06:59.572Z,5.40
2022-10-12T08:09:26.813Z,5.00
2022-10-12T08:11:56.180Z,5.00
2022-10-12T08:14:23.453Z,5.27
2022-10-12T08:16:50.686Z,5.20
2022-10-12T08:19:18.157Z,5.50
2022-10-12T08:21:45.368Z,6.23
2022-10-12T08:24:13.202Z,6.20
2022-10-12T08:26:40.624Z,5.70
2022-10-12T08:29:08.430Z,5.70
2022-10-12T08:31:36.230Z,5.47
2022-10-12T08:34:04.120Z,5.67
2022-10-12T08:36:31.340Z,6.00
2022-10-12T08:38:58.737Z,6.40
2022-10-12T08:42:02.804Z,5.93
2022-10-12T08:44:45.101Z,5.90
2022-10-12T08:47:22.297Z,6.30
2022-10-12T08:49:51.682Z,5.37
2022-10-12T08:52:30.773Z,6.30
2022-10-12T08:55:06.314Z,6.27
2022-10-12T08:57:35.397Z,6.00
2022-10-12T09:00:03.115Z,6.53
2022-10-12T09:02:49.566Z,6.30
2022-10-12T09:05:29.103Z,6.10
2022-10-12T09:08:06.864Z,5.90
2022-10-12T09:10:53.955Z,5.83
2022-10-12T09:13:21.258Z,6.30
2022-10-12T09:16:02.743Z,6.07
2022-10-12T09:18:46.266Z,6.40
2022-10-12T09:21:21.568Z,6.53
2022-10-12T09:23:49.586Z,6.17
2022-10-12T09:26:29.626Z,5.90
2022-10-12T09:28:58.279Z,5.90
2022-10-12T09:31:34.554Z,6.87
2022-10-12T09:34:05.581Z,6.67
2022-10-12T09:36:36.125Z,6.47
2022-10-12T09:39:07.096Z,6.30
2022-10-12T09:41:42.278Z,6.20
2022-10-12T09:44:19.765Z,6.67
2022-10-12T09:46:53.629Z,6.10
2022-10-12T09:49:21.095Z,6.17
2022-10-12T09:51:58.542Z,7.27
2022-10-12T09:54:27.666Z,6.47
2022-10-12T09:56:55.284Z,6.10
2022-10-12T09:59:22.519Z,6.10
2022-10-12T10:02:05.131Z,6.40
2022-10-12T10:04:32.435Z,6.73
2022-10-12T10:07:33.467Z,6.10
2022-10-12T10:10:08.497Z,5.73
2022-10-12T10:12:55.065Z,6.90
2022-10-12T10:15:40.802Z,6.33
2022-10-12T10:18:20.256Z,6.20
2022-10-12T10:20:54.480Z,6.20
2022-10-12T10:23:37.947Z,5.87
2022-10-12T10:26:10.643Z,5.60
2022-10-12T10:28:42.616Z,5.67
2022-10-12T10:31:27.393Z,6.07
2022-10-12T10:34:12.209Z,8.37
2022-10-12T10:36:54.494Z,6.10
2022-10-12T10:39:26.266Z,6.63
2022-10-12T10:41:55.860Z,5.93
2022-10-12T10:44:25.083Z,7.00
2022-10-12T10:46:55.067Z,6.37
2022-10-12T10:49:44.415Z,5.83
2022-10-12T10:52:36.384Z,5.90
2022-10-12T10:55:15.805Z,5.63
2022-10-12T10:58:12.232Z,5.80
2022-10-12T11:00:48.815Z,6.70
2022-10-12T11:03:34.083Z,6.60
2022-10-12T11:06:21.442Z,5.63
2022-10-12T11:08:56.120Z,6.10
2022-10-12T11:11:28.451Z,5.87
2022-10-12T11:14:01.063Z,6.20
2022-10-12T11:16:39.913Z,6.47
2022-10-12T11:19:26.486Z,5.80
2022-10-12T11:22:25.845Z,6.20
2022-10-12T11:25:03.046Z,6.90
2022-10-12T11:27:37.736Z,7.07
2022-10-12T11:30:27.674Z,7.70
2022-10-12T11:33:01.434Z,6.00
2022-10-12T11:35:40.026Z,6.17
2022-10-12T11:38:35.075Z,9.40
2022-10-12T11:41:34.487Z,6.80
2022-10-12T11:44:06.457Z,8.20
2022-10-12T11:46:53.955Z,6.77
2022-10-12T11:49:32.805Z,5.90
2022-10-12T11:52:08.455Z,5.40
2022-10-12T11:54:41.688Z,11.37
2022-10-12T11:57:14.018Z,12.87
2022-10-12T11:59:47.509Z,8.80
2022-10-12T12:02:29.762Z,6.30
2022-10-12T12:04:59.378Z,15.03
2022-10-12T12:07:54.180Z,9.77
2022-10-12T12:10:27.923Z,10.63
2022-10-12T12:13:15.138Z,15.17
2022-10-12T12:15:43.613Z,13.40
2022-10-12T12:18:19.516Z,6.20
2022-10-12T12:20:46.803Z,9.27
2022-10-12T12:23:34.923Z,5.70
2022-10-12T12:26:16.015Z,7.77
2022-10-12T12:28:49.669Z,10.57
2022-10-12T12:31:23.066Z,13.63
2022-10-12T12:34:03.435Z,7.27
2022-10-12T12:36:46.602Z,7.27
2022-10-12T12:39:33.667Z,5.83
2022-10-12T12:42:06.814Z,5.10
2022-10-12T12:44:34.026Z,4.90
2022-10-12T12:47:01.225Z,4.93
2022-10-12T12:49:39.477Z,5.03
2022-10-12T12:52:29.720Z,5.30
2022-10-12T12:55:15.964Z,6.67
2022-10-12T12:57:49.279Z,7.63
2022-10-12T13:00:22.560Z,6.40
2022-10-12T13:03:05.226Z,6.77
2022-10-12T13:06:09.524Z,11.43
2022-10-12T13:08:55.891Z,5.53
2022-10-12T13:11:52.585Z,5.83
2022-10-12T13:14:37.748Z,5.10
2022-10-12T13:17:45.279Z,6.20
2022-10-12T13:20:22.601Z,7.63
2022-10-12T13:22:52.735Z,5.33
2022-10-12T13:25:44.047Z,5.73
2022-10-12T13:28:20.841Z,8.00
2022-10-12T13:31:00.887Z,6.43
2022-10-12T13:33:52.054Z,7.50
2022-10-12T13:36:29.312Z,8.90
2022-10-12T13:39:07.392Z,8.00
2022-10-12T13:41:35.709Z,4.93
2022-10-12T13:44:07.379Z,5.33
2022-10-12T13:46:40.790Z,7.40
2022-10-12T13:49:26.155Z,6.00
2022-10-12T13:51:55.112Z,6.63
2022-10-12T13:54:23.963Z,7.33
2022-10-12T13:57:06.343Z,7.10
2022-10-12T13:59:37.985Z,7.00
2022-10-12T14:02:17.431Z,7.40
2022-10-12T14:04:44.711Z,6.63
2022-10-12T14:07:20.507Z,6.70
2022-10-12T14:09:51.835Z,6.87
2022-10-12T14:12:24.531Z,7.63
2022-10-12T14:14:53.786Z,9.20
2022-10-12T14:17:21.781Z,7.80
2022-10-12T14:19:54.526Z,8.00
2022-10-12T14:22:24.427Z,8.27
2022-10-12T14:25:14.570Z,9.90
2022-10-12T14:27:42.284Z,8.53
2022-10-12T14:30:17.428Z,8.83
2022-10-12T14:32:45.802Z,8.90
2022-10-12T14:35:19.106Z,9.37
2022-10-12T14:37:48.029Z,9.33
2022-10-12T14:40:29.511Z,8.87
2022-10-12T14:42:59.982Z,8.97
2022-10-12T14:45:27.402Z,9.90
2022-10-12T14:47:54.888Z,8.57
2022-10-12T14:50:22.847Z,9.17
2022-10-12T14:52:53.909Z,8.47
2022-10-12T14:55:24.571Z,9.00
2022-10-12T14:57:52.513Z,7.87
2022-10-12T15:00:25.396Z,9.77
2022-10-12T15:02:53.072Z,8.40
2022-10-12T15:05:22.606Z,8.20
2022-10-12T15:07:50.808Z,7.10
2022-10-12T15:10:20.917Z,7.80
2022-10-12T15:12:49.179Z,6.80
2022-10-12T15:15:28.828Z,7.80
2022-10-12T15:17:57.903Z,7.67
2022-10-12T15:20:26.963Z,7.27
2022-10-12T15:22:54.203Z,7.33
2022-10-12T15:25:37.149Z,7.73
2022-10-12T15:28:05.148Z,7.60
2022-10-12T15:30:33.402Z,7.73
2022-10-12T15:33:00.753Z,7.30
2022-10-12T15:35:31.346Z,7.10
2022-10-12T15:37:58.781Z,7.20
2022-10-12T15:40:29.221Z,7.60
2022-10-12T15:42:56.749Z,7.93
2022-10-12T15:45:33.895Z,6.73
2022-10-12T15:48:01.987Z,7.20
2022-10-12T15:50:39.381Z,7.33
2022-10-12T15:53:07.689Z,7.47
2022-10-12T15:55:34.916Z,7.87
2022-10-12T15:58:02.429Z,7.20
2022-10-12T16:00:32.735Z,7.83
2022-10-12T16:03:01.241Z,7.33
2022-10-12T16:05:32.675Z,7.60
2022-10-12T16:08:00.410Z,8.17
2022-10-12T16:10:31.520Z,8.00
2022-10-12T16:12:59.568Z,7.90
2022-10-12T16:15:33.483Z,7.43
2022-10-12T16:18:02.074Z,8.67
2022-10-12T16:20:31.308Z,8.53
2022-10-12T16:23:00.012Z,9.00
2022-10-12T16:25:27.747Z,8.93
2022-10-12T16:27:56.552Z,9.10
2022-10-12T16:30:25.794Z,10.00
2022-10-12T16:32:53.455Z,8.87
2022-10-12T16:35:20.937Z,10.57
2022-10-12T16:37:48.219Z,13.70
2022-10-12T16:40:15.968Z,12.43
2022-10-12T16:42:43.358Z,11.67
2022-10-12T16:45:11.730Z,12.77
2022-10-12T16:47:42.773Z,9.53
2022-10-12T16:50:10.693Z,8.57
2022-10-12T16:52:38.243Z,14.50
2022-10-12T16:55:06.046Z,8.77
2022-10-12T16:57:33.524Z,8.03
2022-10-12T17:00:01.095Z,8.17
2022-10-12T17:02:28.385Z,8.53
2022-10-12T17:04:55.672Z,8.33
2022-10-12T17:07:23.004Z,8.63
2022-10-12T17:09:50.708Z,7.97
2022-10-12T17:12:18.812Z,8.33
2022-10-12T17:14:46.380Z,8.10
2022-10-12T17:17:13.738Z,8.63
2022-10-12T17:19:41.194Z,8.60
2022-10-12T17:22:11.218Z,8.63
2022-10-12T17:24:40.442Z,9.27
2022-10-12T17:27:09.420Z,9.97
2022-10-12T17:29:41.164Z,8.27
2022-10-12T17:32:10.389Z,8.13
2022-10-12T17:34:42.935Z,8.00
2022-10-12T17:37:13.506Z,8.67
2022-10-12T17:39:45.272Z,8.50
2022-10-12T17:42:13.057Z,9.10
2022-10-12T17:44:40.500Z,9.07
2022-10-12T17:47:07.787Z,9.10
2022-10-12T17:49:35.069Z,11.13
2022-10-12T17:52:02.335Z,21.20
2022-10-12T17:54:29.657Z,20.10
2022-10-12T17:56:57.286Z,18.67
2022-10-12T17:59:25.171Z,16.13
2022-10-12T18:01:53.026Z,15.77
2022-10-12T18:04:20.897Z,16.63
2022-10-12T18:06:48.464Z,16.43
2022-10-12T18:09:15.800Z,20.00
2022-10-12T18:11:44.403Z,11.20
2022-10-12T18:14:13.395Z,11.13
2022-10-12T18:16:41.242Z,14.03
2022-10-12T18:19:11.254Z,10.73
2022-10-12T18:21:39.006Z,10.43
2022-10-12T18:24:16.011Z,10.33
2022-10-12T18:26:47.633Z,10.97
2022-10-12T18:29:17.831Z,11.07
2022-10-12T18:31:45.136Z,10.70
2022-10-12T18:34:12.464Z,11.43
2022-10-12T18:36:42.695Z,10.97
2022-10-12T18:39:10.051Z,10.37
2022-10-12T18:41:37.269Z,11.67
2022-10-12T18:44:04.664Z,11.97
2022-10-12T18:46:34.485Z,11.80
2022-10-12T18:49:05.030Z,14.30
2022-10-12T18:51:35.245Z,13.00
2022-10-12T18:54:03.654Z,13.83
2022-10-12T18:56:33.911Z,13.40
2022-10-12T18:59:02.207Z,12.53
2022-10-12T19:01:30.748Z,11.27
2022-10-12T19:03:59.232Z,10.30
2022-10-12T19:06:30.856Z,11.00
2022-10-12T19:08:59.599Z,10.53
2022-10-12T19:11:29.332Z,11.53
2022-10-12T19:14:06.237Z,11.93
2022-10-12T19:16:34.617Z,13.13
2022-10-12T19:19:08.423Z,12.87
2022-10-12T19:21:35.841Z,13.10
2022-10-12T19:24:05.820Z,14.30
2022-10-12T19:26:34.001Z,14.13
2022-10-12T19:29:01.752Z,14.47
2022-10-12T19:31:34.995Z,13.70
2022-10-12T19:34:06.263Z,14.90
2022-10-12T19:36:34.069Z,21.30
2022-10-12T19:39:05.347Z,35.23
2022-10-12T19:41:32.610Z,28.67
2022-10-12T19:44:00.822Z,22.57
2022-10-12T19:46:28.786Z,15.53
2022-10-12T19:48:58.130Z,14.27
2022-10-12T19:51:28.211Z,12.53
2022-10-12T19:53:57.610Z,11.57
2022-10-12T19:56:27.568Z,11.27
2022-10-12T19:58:56.689Z,11.03
2022-10-12T20:01:26.857Z,11.23
2022-10-12T20:03:54.282Z,11.03
2022-10-12T20:06:24.404Z,10.87
2022-10-12T20:08:53.687Z,12.27
2022-10-12T20:11:24.663Z,11.00
2022-10-12T20:13:53.042Z,11.87
2022-10-12T20:16:20.693Z,12.43
2022-10-12T20:18:48.523Z,12.70
2022-10-12T20:21:19.104Z,13.17
2022-10-12T20:23:46.656Z,17.60
2022-10-12T20:26:17.644Z,19.43
2022-10-12T20:28:45.296Z,18.57
2022-10-12T20:31:12.538Z,18.47
2022-10-12T20:33:40.596Z,17.50
2022-10-12T20:36:15.518Z,14.43
2022-10-12T20:38:44.099Z,13.57
2022-10-12T20:41:14.105Z,13.60
2022-10-12T20:43:41.680Z,13.00
2022-10-12T20:46:13.320Z,13.57
2022-10-12T20:48:44.285Z,13.37
2022-10-12T20:51:24.413Z,12.57
2022-10-12T20:53:52.263Z,12.23
2022-10-12T20:56:19.723Z,11.90
2022-10-12T20:58:47.016Z,12.17
2022-10-12T21:01:16.822Z,11.73
2022-10-12T21:03:44.194Z,12.50
2022-10-12T21:06:13.980Z,12.20
2022-10-12T21:08:41.974Z,12.97
2022-10-12T21:11:10.669Z,12.07
2022-10-12T21:13:42.534Z,13.37
2022-10-12T21:16:10.815Z,12.40
2022-10-12T21:18:39.529Z,12.80
2022-10-12T21:21:12.675Z,14.03
2022-10-12T21:23:41.080Z,13.60
2022-10-12T21:26:12.884Z,12.87
2022-10-12T21:28:40.634Z,12.30
2022-10-12T21:31:08.569Z,13.87
2022-10-12T21:33:36.764Z,12.83
2022-10-12T21:36:13.816Z,12.73
2022-10-12T21:38:42.071Z,12.30
2022-10-12T21:41:10.916Z,12.60
2022-10-12T21:43:39.532Z,12.83
2022-10-12T21:46:09.938Z,12.97
2022-10-12T21:48:37.425Z,12.23
2022-10-12T21:51:06.295Z,13.03
2022-10-12T21:53:35.053Z,13.37
2022-10-12T21:56:07.087Z,13.93
2022-10-12T21:58:34.713Z,12.33
2022-10-12T22:01:11.116Z,12.67
2022-10-12T22:03:38.526Z,12.33
2022-10-12T22:06:06.326Z,12.77
2022-10-12T22:08:33.851Z,12.90
2022-10-12T22:11:09.655Z,12.50
2022-10-12T22:13:37.013Z,11.93
2022-10-12T22:16:10.743Z,12.37
2022-10-12T22:18:38.473Z,12.33
2022-10-12T22:21:08.707Z,12.40
2022-10-12T22:23:36.118Z,11.90
2022-10-12T22:26:09.208Z,12.50
2022-10-12T22:28:36.766Z,12.47
2022-10-12T22:31:07.839Z,12.23
2022-10-12T22:33:36.547Z,11.93
2022-10-12T22:36:05.344Z,12.30
2022-10-12T22:38:33.824Z,11.47
2022-10-12T22:41:09.758Z,11.53
2022-10-12T22:43:42.683Z,12.87
2022-10-12T22:46:10.046Z,12.47
2022-10-12T22:48:37.452Z,12.40
2022-10-12T22:51:06.323Z,11.43
2022-10-12T22:53:34.594Z,11.57
2022-10-12T22:56:06.085Z,11.57
2022-10-12T22:58:34.191Z,11.23
2022-10-12T23:01:07.279Z,11.43
2022-10-12T23:03:36.017Z,13.80
2022-10-12T23:06:10.853Z,13.57
2022-10-12T23:08:38.110Z,12.43
2022-10-12T23:11:07.116Z,12.53
2022-10-12T23:13:36.383Z,12.70
2022-10-12T23:16:42.022Z,12.30
2022-10-12T23:19:10.334Z,12.60
2022-10-12T23:21:37.553Z,12.63
2022-10-12T23:24:05.358Z,11.93
2022-10-12T23:26:34.105Z,11.60
2022-10-12T23:29:01.539Z,11.67
2022-10-12T23:31:30.641Z,11.50
2022-10-12T23:33:59.641Z,12.10
2022-10-12T23:36:26.967Z,12.30
2022-10-12T23:38:54.322Z,11.33
2022-10-12T23:41:21.630Z,11.67
2022-10-12T23:43:49.043Z,11.23
2022-10-12T23:46:16.450Z,12.07
2022-10-12T23:48:43.732Z,12.13
2022-10-12T23:51:11.461Z,12.17
2022-10-12T23:53:39.211Z,12.00
2022-10-12T23:56:07.293Z,12.60
2022-10-12T23:58:35.504Z,12.23
